createdAt,value
2022-10-24T00:01:17.422Z,99121.81
2022-10-24T00:03:44.756Z,99119.97
2022-10-24T00:06:13.534Z,99111.03
2022-10-24T00:08:43.017Z,99111.88
2022-10-24T00:11:12.591Z,99117.50
2022-10-24T00:13:40.106Z,99124.63
2022-10-24T00:16:08.006Z,99126.13
2022-10-24T00:18:36.500Z,99128.75
2022-10-24T00:21:06.317Z,99126.50
2022-10-24T00:23:33.204Z,99120.22
2022-10-24T00:26:00.029Z,99118.75
2022-10-24T00:28:27.014Z,99125.09
2022-10-24T00:30:54.062Z,99131.81
2022-10-24T00:33:20.939Z,99126.19
2022-10-24T00:35:49.198Z,99124.59
2022-10-24T00:38:16.164Z,99124.34
2022-10-24T00:40:43.256Z,99131.47
2022-10-24T00:43:15.623Z,99130.50
2022-10-24T00:45:47.928Z,99141.91
2022-10-24T00:48:22.981Z,99151.13
2022-10-24T00:50:56.808Z,99146.00
2022-10-24T00:53:26.560Z,99142.31
2022-10-24T00:55:58.451Z,99151.69
2022-10-24T00:58:29.962Z,99151.88
2022-10-24T01:00:57.520Z,99145.91
2022-10-24T01:03:24.639Z,99148.34
2022-10-24T01:06:21.267Z,99149.88
2022-10-24T01:09:03.260Z,99142.97
2022-10-24T01:11:55.608Z,99140.81
2022-10-24T01:14:39.419Z,99139.78
2022-10-24T01:17:17.372Z,99142.50
2022-10-24T01:20:43.899Z,99137.53
2022-10-24T01:23:49.745Z,99134.19
2022-10-24T01:26:49.372Z,99126.13
2022-10-24T01:29:33.400Z,99115.28
2022-10-24T01:32:11.889Z,99120.09
2022-10-24T01:34:48.337Z,99128.41
2022-10-24T01:37:23.838Z,99120.47
2022-10-24T01:39:59.431Z,99112.28
2022-10-24T01:42:39.760Z,99108.97
2022-10-24T01:45:15.212Z,99113.75
2022-10-24T01:47:53.105Z,99114.22
2022-10-24T01:50:24.543Z,99112.41
2022-10-24T01:52:55.193Z,99102.53
2022-10-24T01:55:23.279Z,99114.41
2022-10-24T01:57:50.122Z,99107.34
2022-10-24T02:00:22.857Z,99104.41
2022-10-24T02:02:57.329Z,99104.41
2022-10-24T02:05:30.889Z,99110.94
2022-10-24T02:08:09.143Z,99114.91
2022-10-24T02:10:42.064Z,99106.44
2022-10-24T02:13:19.586Z,99111.03
2022-10-24T02:15:55.280Z,99109.75
2022-10-24T02:18:22.806Z,99106.13
2022-10-24T02:20:58.727Z,99107.94
2022-10-24T02:23:32.137Z,99104.38
2022-10-24T02:26:04.834Z,99105.41
2022-10-24T02:28:41.078Z,99098.53
2022-10-24T02:31:16.516Z,99093.28
2022-10-24T02:33:48.353Z,99088.53
2022-10-24T02:36:22.995Z,99094.28
2022-10-24T02:38:54.870Z,99089.84
2022-10-24T02:41:31.951Z,99079.88
2022-10-24T02:44:03.129Z,99088.97
2022-10-24T02:46:34.391Z,99096.19
2022-10-24T02:49:04.524Z,99087.09
2022-10-24T02:51:38.312Z,99084.28
2022-10-24T02:54:07.358Z,99088.34
2022-10-24T02:56:40.287Z,99089.75
2022-10-24T02:59:07.205Z,99090.56
2022-10-24T03:01:35.442Z,99073.91
2022-10-24T03:04:02.285Z,99075.38
2022-10-24T03:06:29.072Z,99077.38
2022-10-24T03:08:55.969Z,99074.13
2022-10-24T03:11:22.896Z,99073.91
2022-10-24T03:13:49.797Z,99064.44
2022-10-24T03:16:16.609Z,99056.34
2022-10-24T03:18:44.715Z,99058.47
2022-10-24T03:21:11.653Z,99072.34
2022-10-24T03:23:38.453Z,99074.81
2022-10-24T03:26:05.840Z,99085.63
2022-10-24T03:28:35.091Z,99086.31
2022-10-24T03:31:01.995Z,99086.78
2022-10-24T03:33:28.963Z,99095.53
2022-10-24T03:35:57.535Z,99096.06
2022-10-24T03:38:24.551Z,99107.41
2022-10-24T03:40:51.715Z,99116.63
2022-10-24T03:43:19.424Z,99112.00
2022-10-24T03:45:46.570Z,99099.81
2022-10-24T03:48:14.292Z,99089.97
2022-10-24T03:50:41.432Z,99090.13
2022-10-24T03:53:10.095Z,99083.19
2022-10-24T03:55:36.883Z,99085.47
2022-10-24T03:58:03.915Z,99097.50
2022-10-24T04:00:30.798Z,99093.84
2022-10-24T04:02:57.729Z,99089.28
2022-10-24T04:05:24.654Z,99083.69
2022-10-24T04:07:51.451Z,99108.41
2022-10-24T04:10:20.002Z,99093.28
2022-10-24T04:12:46.913Z,99100.03
2022-10-24T04:15:13.683Z,99105.09
2022-10-24T04:17:40.735Z,99097.84
2022-10-24T04:20:08.604Z,99101.81
2022-10-24T04:22:35.461Z,99118.63
2022-10-24T04:25:02.445Z,99128.19
2022-10-24T04:27:30.649Z,99118.63
2022-10-24T04:29:57.459Z,99112.38
2022-10-24T04:32:24.305Z,99108.03
2022-10-24T04:34:51.419Z,99110.19
2022-10-24T04:37:18.233Z,99115.94
2022-10-24T04:39:45.087Z,99105.09
2022-10-24T04:42:11.848Z,99111.03
2022-10-24T04:44:40.084Z,99100.19
2022-10-24T04:47:06.911Z,99102.16
2022-10-24T04:49:33.780Z,99085.69
2022-10-24T04:52:00.542Z,99089.50
2022-10-24T04:54:27.322Z,99086.69
2022-10-24T04:56:54.090Z,99088.31
2022-10-24T04:59:20.938Z,99080.25
2022-10-24T05:01:49.215Z,99065.59
2022-10-24T05:04:16.341Z,99075.84
2022-10-24T05:06:45.028Z,99074.31
2022-10-24T05:09:12.515Z,99081.41
2022-10-24T05:11:39.318Z,99091.59
2022-10-24T05:14:06.136Z,99091.28
2022-10-24T05:16:33.465Z,99105.47
2022-10-24T05:19:01.623Z,99103.50
2022-10-24T05:21:28.420Z,99092.50
2022-10-24T05:23:55.183Z,99073.75
2022-10-24T05:26:21.954Z,99079.16
2022-10-24T05:28:51.685Z,99095.94
2022-10-24T05:31:20.072Z,99109.56
2022-10-24T05:33:47.085Z,99122.56
2022-10-24T05:36:15.194Z,99145.78
2022-10-24T05:38:42.099Z,99174.00
2022-10-24T05:41:09.019Z,99228.63
2022-10-24T05:43:35.834Z,99281.34
2022-10-24T05:46:03.758Z,99244.44
2022-10-24T05:48:30.504Z,99270.97
2022-10-24T05:50:58.259Z,99189.44
2022-10-24T05:53:27.554Z,99127.75
2022-10-24T05:55:54.517Z,99151.41
2022-10-24T05:58:21.268Z,99172.88
2022-10-24T06:00:53.576Z,99189.13
2022-10-24T06:03:21.073Z,99185.91
2022-10-24T06:05:47.994Z,99186.06
2022-10-24T06:08:14.783Z,99198.09
2022-10-24T06:10:46.535Z,99195.16
2022-10-24T06:13:40.043Z,99208.38
2022-10-24T06:16:08.934Z,99207.34
2022-10-24T06:18:37.056Z,99195.84
2022-10-24T06:21:07.804Z,99179.09
2022-10-24T06:23:34.767Z,99141.44
2022-10-24T06:26:10.182Z,99129.72
2022-10-24T06:28:37.891Z,99108.84
2022-10-24T06:31:05.189Z,99106.91
2022-10-24T06:33:32.146Z,99138.13
2022-10-24T06:35:59.961Z,99166.41
2022-10-24T06:38:26.849Z,99168.09
2022-10-24T06:40:54.058Z,99159.75
2022-10-24T06:43:22.377Z,99168.72
2022-10-24T06:45:49.720Z,99187.59
2022-10-24T06:48:16.701Z,99206.19
2022-10-24T06:50:43.619Z,99210.59
2022-10-24T06:53:10.565Z,99215.56
2022-10-24T06:55:39.212Z,99209.47
2022-10-24T06:58:07.040Z,99211.94
2022-10-24T07:00:35.392Z,99210.44
2022-10-24T07:03:02.396Z,99233.78
2022-10-24T07:05:29.569Z,99229.19
2022-10-24T07:07:56.483Z,99247.63
2022-10-24T07:10:23.502Z,99253.38
2022-10-24T07:12:50.275Z,99245.75
2022-10-24T07:15:17.178Z,99229.91
2022-10-24T07:17:45.754Z,99199.84
2022-10-24T07:20:14.266Z,99184.22
2022-10-24T07:22:42.121Z,99188.00
2022-10-24T07:25:09.951Z,99201.63
2022-10-24T07:27:37.186Z,99237.66
2022-10-24T07:30:06.008Z,99237.84
2022-10-24T07:32:33.282Z,99253.81
2022-10-24T07:35:01.503Z,99246.47
2022-10-24T07:37:28.266Z,99238.38
2022-10-24T07:39:55.166Z,99217.25
2022-10-24T07:42:21.973Z,99190.97
2022-10-24T07:44:48.950Z,99186.06
2022-10-24T07:47:15.813Z,99174.63
2022-10-24T07:49:42.609Z,99164.09
2022-10-24T07:52:10.800Z,99165.09
2022-10-24T07:54:37.753Z,99176.69
2022-10-24T07:57:05.118Z,99184.75
2022-10-24T07:59:41.821Z,99200.09
2022-10-24T08:02:11.279Z,99212.59
2022-10-24T08:04:38.439Z,99209.66
2022-10-24T08:07:05.483Z,99211.94
2022-10-24T08:09:37.591Z,99213.25
2022-10-24T08:12:04.683Z,99215.22
2022-10-24T08:14:31.644Z,99201.56
2022-10-24T08:16:58.411Z,99208.66
2022-10-24T08:21:52.254Z,99217.84
2022-10-24T08:24:19.263Z,99228.38
2022-10-24T08:26:47.485Z,99226.06
2022-10-24T08:29:14.651Z,99227.53
2022-10-24T08:31:41.596Z,99233.81
2022-10-24T08:34:10.828Z,99214.59
2022-10-24T08:36:37.620Z,99190.25
2022-10-24T08:39:04.869Z,99207.03
2022-10-24T08:41:40.839Z,99224.81
2022-10-24T08:44:20.805Z,99214.94
2022-10-24T08:46:54.619Z,99221.53
2022-10-24T08:49:33.318Z,99222.19
2022-10-24T08:52:06.631Z,99214.28
2022-10-24T08:54:39.509Z,99214.63
2022-10-24T08:57:17.240Z,99213.63
2022-10-24T08:59:47.533Z,99210.34
2022-10-24T09:02:22.018Z,99200.16
2022-10-24T09:04:56.753Z,99198.50
2022-10-24T09:10:13.613Z,99199.81
2022-10-24T09:12:40.689Z,99190.94
2022-10-24T09:15:24.480Z,99216.75
2022-10-24T09:17:53.021Z,99229.75
2022-10-24T09:20:24.578Z,99219.22
2022-10-24T09:22:53.278Z,99234.03
2022-10-24T09:25:24.118Z,99239.44
2022-10-24T09:27:51.698Z,99244.56
2022-10-24T09:30:25.104Z,99248.84
2022-10-24T09:32:57.230Z,99253.78
2022-10-24T09:35:29.744Z,99254.78
2022-10-24T09:38:18.563Z,99241.63
2022-10-24T09:40:51.551Z,99241.28
2022-10-24T09:43:29.057Z,99238.97
2022-10-24T09:46:05.300Z,99243.59
2022-10-24T09:48:45.989Z,99250.84
2022-10-24T09:51:24.186Z,99254.16
2022-10-24T09:54:07.287Z,99254.63
2022-10-24T09:56:38.699Z,99262.25
2022-10-24T09:59:34.241Z,99268.66
2022-10-24T10:02:25.990Z,99260.13
2022-10-24T10:05:18.272Z,99289.75
2022-10-24T10:07:48.831Z,99278.72
2022-10-24T10:10:31.399Z,99285.47
2022-10-24T10:13:05.192Z,99282.16
2022-10-24T10:15:37.607Z,99290.03
2022-10-24T10:18:24.745Z,99279.66
2022-10-24T10:21:11.753Z,99281.28
2022-10-24T10:23:42.852Z,99270.59
2022-10-24T10:26:23.830Z,99265.19
2022-10-24T10:29:01.461Z,99262.41
2022-10-24T10:31:43.761Z,99264.91
2022-10-24T10:34:32.503Z,99270.66
2022-10-24T10:37:25.983Z,99286.78
2022-10-24T10:40:20.218Z,99266.69
2022-10-24T10:43:10.937Z,99265.53
2022-10-24T10:45:46.503Z,99265.03
2022-10-24T10:52:11.850Z,99270.31
2022-10-24T10:55:06.580Z,99257.16
2022-10-24T10:57:45.782Z,99251.22
2022-10-24T11:00:17.909Z,99258.47
2022-10-24T11:03:23.987Z,99258.13
2022-10-24T11:06:03.965Z,99261.75
2022-10-24T11:08:55.946Z,99271.97
2022-10-24T11:11:30.988Z,99290.41
2022-10-24T11:14:08.793Z,99294.03
2022-10-24T11:16:41.228Z,99293.38
2022-10-24T11:19:22.691Z,99292.38
2022-10-24T11:21:51.018Z,99298.13
2022-10-24T11:24:23.734Z,99306.66
2022-10-24T11:27:00.392Z,99298.94
2022-10-24T11:29:36.880Z,99297.91
2022-10-24T11:32:16.100Z,99296.09
2022-10-24T11:34:51.203Z,99300.84
2022-10-24T11:37:27.207Z,99286.69
2022-10-24T11:40:00.891Z,99292.13
2022-10-24T11:42:39.936Z,99304.69
2022-10-24T11:45:12.723Z,99286.06
2022-10-24T11:48:10.886Z,99296.44
2022-10-24T11:50:45.294Z,99285.38
2022-10-24T11:53:39.119Z,99279.81
2022-10-24T11:56:16.604Z,99278.13
2022-10-24T11:58:54.809Z,99282.56
2022-10-24T12:01:51.309Z,99280.78
2022-10-24T12:04:44.602Z,99277.97
2022-10-24T12:08:08.988Z,99275.19
2022-10-24T12:11:17.202Z,99264.97
2022-10-24T12:14:22.949Z,99265.28
2022-10-24T12:17:28.962Z,99266.91
2022-10-24T12:19:56.863Z,99255.88
2022-10-24T12:22:36.510Z,99247.97
2022-10-24T12:25:17.065Z,99241.06
2022-10-24T12:27:52.502Z,99232.50
2022-10-24T12:30:21.813Z,99233.16
2022-10-24T12:33:21.973Z,99237.31
2022-10-24T12:35:53.036Z,99231.84
2022-10-24T12:39:08.467Z,99234.16
2022-10-24T12:41:41.649Z,99235.63
2022-10-24T12:44:46.459Z,99244.53
2022-10-24T12:47:45.453Z,99255.72
2022-10-24T12:51:03.581Z,99250.44
2022-10-24T12:53:38.641Z,99251.41
2022-10-24T12:56:20.989Z,99243.81
2022-10-24T12:59:14.899Z,99243.16
2022-10-24T13:01:43.770Z,99239.19
2022-10-24T13:04:51.400Z,99229.97
2022-10-24T13:07:40.772Z,99230.28
2022-10-24T13:10:33.339Z,99222.34
2022-10-24T13:13:39.721Z,99240.00
2022-10-24T13:16:22.608Z,99237.81
2022-10-24T13:19:08.696Z,99229.75
2022-10-24T13:21:47.223Z,99240.78
2022-10-24T13:24:34.198Z,99239.78
2022-10-24T13:27:31.521Z,99237.44
2022-10-24T13:30:27.228Z,99230.53
2022-10-24T13:33:40.162Z,99238.38
2022-10-24T13:36:18.023Z,99246.94
2022-10-24T13:38:53.047Z,99245.59
2022-10-24T13:41:29.351Z,99247.88
2022-10-24T13:44:05.938Z,99240.63
2022-10-24T13:46:55.739Z,99236.50
2022-10-24T13:49:31.392Z,99243.97
2022-10-24T13:52:14.391Z,99242.00
2022-10-24T13:54:48.102Z,99259.50
2022-10-24T13:57:39.507Z,99250.19
2022-10-24T14:00:18.994Z,99243.66
2022-10-24T14:02:46.302Z,99241.94
2022-10-24T14:05:30.258Z,99235.84
2022-10-24T14:08:00.706Z,99237.97
2022-10-24T14:10:29.486Z,99244.03
2022-10-24T14:13:00.642Z,99247.31
2022-10-24T14:15:32.192Z,99262.31
2022-10-24T14:18:02.450Z,99257.41
2022-10-24T14:20:32.956Z,99256.16
2022-10-24T14:23:02.177Z,99251.56
2022-10-24T14:25:34.417Z,99262.22
2022-10-24T14:28:09.799Z,99248.31
2022-10-24T14:30:36.760Z,99254.25
2022-10-24T14:33:18.992Z,99251.28
2022-10-24T14:35:47.907Z,99251.66
2022-10-24T14:38:18.207Z,99246.38
2022-10-24T14:40:53.930Z,99257.94
2022-10-24T14:43:31.234Z,99253.13
2022-10-24T14:46:26.002Z,99255.06
2022-10-24T14:48:53.638Z,99256.22
2022-10-24T14:51:43.013Z,99256.88
2022-10-24T14:54:19.286Z,99254.53
2022-10-24T14:56:47.296Z,99260.44
2022-10-24T14:59:28.575Z,99255.53
2022-10-24T15:02:22.034Z,99244.28
2022-10-24T15:04:50.076Z,99243.50
2022-10-24T15:07:29.861Z,99257.19
2022-10-24T15:10:01.116Z,99250.56
2022-10-24T15:12:34.038Z,99254.84
2022-10-24T15:15:25.153Z,99257.03
2022-10-24T15:17:56.957Z,99247.31
2022-10-24T15:20:27.459Z,99245.50
2022-10-24T15:22:58.658Z,99262.69
2022-10-24T15:25:31.433Z,99262.53
2022-10-24T15:27:59.304Z,99254.84
2022-10-24T15:30:29.511Z,99259.97
2022-10-24T15:33:01.239Z,99251.44
2022-10-24T15:35:35.958Z,99254.31
2022-10-24T15:38:10.816Z,99248.09
2022-10-24T15:40:44.516Z,99252.91
2022-10-24T15:43:12.903Z,99265.31
2022-10-24T15:45:39.778Z,99266.16
2022-10-24T15:48:06.843Z,99264.19
2022-10-24T15:50:34.832Z,99263.06
2022-10-24T15:53:04.844Z,99263.91
2022-10-24T15:55:32.349Z,99273.28
2022-10-24T15:58:00.513Z,99266.91
2022-10-24T16:00:28.034Z,99269.53
2022-10-24T16:03:00.585Z,99259.81
2022-10-24T16:05:34.526Z,99266.91
2022-10-24T16:08:01.411Z,99277.16
2022-10-24T16:10:28.146Z,99268.59
2022-10-24T16:12:55.070Z,99267.94
2022-10-24T16:15:28.717Z,99259.56
2022-10-24T16:17:55.792Z,99270.41
2022-10-24T16:20:22.668Z,99271.56
2022-10-24T16:22:50.406Z,99284.31
2022-10-24T16:25:21.619Z,99274.91
2022-10-24T16:27:49.285Z,99276.91
2022-10-24T16:30:19.494Z,99277.53
2022-10-24T16:32:49.025Z,99278.53
2022-10-24T16:35:18.261Z,99283.81
2022-10-24T16:37:45.663Z,99280.50
2022-10-24T16:40:12.731Z,99278.19
2022-10-24T16:42:39.957Z,99294.69
2022-10-24T16:45:08.998Z,99300.63
2022-10-24T16:47:36.288Z,99306.88
2022-10-24T16:50:07.057Z,99312.31
2022-10-24T16:52:34.143Z,99299.63
2022-10-24T16:55:00.941Z,99303.25
2022-10-24T16:57:27.715Z,99304.41
2022-10-24T16:59:54.760Z,99316.41
2022-10-24T17:02:21.624Z,99318.41
2022-10-24T17:04:48.647Z,99313.63
2022-10-24T17:07:16.943Z,99322.34
2022-10-24T17:09:43.757Z,99319.06
2022-10-24T17:12:10.766Z,99326.31
2022-10-24T17:14:37.593Z,99324.00
2022-10-24T17:17:04.873Z,99326.13
2022-10-24T17:19:31.956Z,99309.31
2022-10-24T17:21:59.015Z,99323.13
2022-10-24T17:24:27.824Z,99322.44
2022-10-24T17:26:55.179Z,99319.97
2022-10-24T17:29:27.042Z,99324.25
2022-10-24T17:31:55.302Z,99324.38
2022-10-24T17:34:23.256Z,99326.38
2022-10-24T17:37:02.589Z,99332.78
2022-10-24T17:39:45.596Z,99330.09
2022-10-24T17:42:13.308Z,99332.56
2022-10-24T17:44:40.741Z,99330.94
2022-10-24T17:47:25.243Z,99341.97
2022-10-24T17:49:52.125Z,99347.22
2022-10-24T17:52:23.288Z,99345.44
2022-10-24T17:54:51.604Z,99344.09
2022-10-24T17:57:18.447Z,99351.16
2022-10-24T17:59:45.208Z,99366.94
2022-10-24T18:02:13.831Z,99387.13
2022-10-24T18:04:41.247Z,99402.72
2022-10-24T18:07:08.774Z,99405.53
2022-10-24T18:09:35.619Z,99411.41
2022-10-24T18:12:04.215Z,99423.97
2022-10-24T18:14:31.017Z,99434.47
2022-10-24T18:16:57.814Z,99436.16
2022-10-24T18:19:24.547Z,99455.28
2022-10-24T18:22:08.841Z,99452.44
2022-10-24T18:24:36.677Z,99482.41
2022-10-24T18:27:10.355Z,99488.03
2022-10-24T18:29:38.043Z,99479.03
2022-10-24T18:32:05.217Z,99484.63
2022-10-24T18:34:33.693Z,99457.78
2022-10-24T18:37:00.502Z,99444.38
2022-10-24T18:39:29.267Z,99462.84
2022-10-24T18:42:08.924Z,99464.09
2022-10-24T18:44:36.729Z,99480.78
2022-10-24T18:47:07.455Z,99480.94
2022-10-24T18:49:35.739Z,99466.88
2022-10-24T18:52:17.180Z,99458.84
2022-10-24T18:54:56.644Z,99467.53
2022-10-24T18:57:29.452Z,99466.88
2022-10-24T18:59:58.549Z,99471.41
2022-10-24T19:02:36.440Z,99470.28
2022-10-24T19:05:22.269Z,99459.13
2022-10-24T19:07:54.403Z,99463.91
2022-10-24T19:10:27.150Z,99459.63
2022-10-24T19:12:56.072Z,99450.91
2022-10-24T19:15:24.112Z,99425.69
2022-10-24T19:17:51.907Z,99425.47
2022-10-24T19:20:21.759Z,99430.13
2022-10-24T19:22:49.101Z,99442.38
2022-10-24T19:25:17.522Z,99455.91
2022-10-24T19:27:45.216Z,99457.56
2022-10-24T19:30:14.053Z,99449.44
2022-10-24T19:32:40.941Z,99467.22
2022-10-24T19:35:08.344Z,99485.56
2022-10-24T19:37:35.192Z,99475.22
2022-10-24T19:40:02.200Z,99468.59
2022-10-24T19:42:31.328Z,99471.22
2022-10-24T19:44:58.295Z,99467.78
2022-10-24T19:47:29.228Z,99461.16
2022-10-24T19:49:56.248Z,62450.84
2022-10-24T19:52:26.160Z,62450.84
2022-10-24T19:54:53.109Z,62450.84
2022-10-24T19:57:20.052Z,62450.84
2022-10-24T19:59:47.049Z,62450.84
2022-10-24T20:02:15.429Z,62450.84
2022-10-24T20:04:48.105Z,62450.84
2022-10-24T20:07:16.138Z,62450.84
2022-10-24T20:09:44.598Z,62450.84
2022-10-24T20:12:12.250Z,62450.84
2022-10-24T20:14:39.224Z,62450.84
2022-10-24T20:17:06.144Z,62450.84
2022-10-24T20:19:33.087Z,62450.84
2022-10-24T20:22:02.479Z,62450.84
2022-10-24T20:24:29.534Z,62450.84
2022-10-24T20:26:56.725Z,62450.84
2022-10-24T20:29:23.604Z,62450.84
2022-10-24T20:31:50.687Z,62450.84
2022-10-24T20:34:17.598Z,62450.84
2022-10-24T20:36:51.279Z,62450.84
2022-10-24T20:39:21.891Z,62450.84
2022-10-24T20:41:51.801Z,62450.84
2022-10-24T20:44:21.631Z,62450.84
2022-10-24T20:46:51.456Z,62450.84
2022-10-24T20:49:21.303Z,62450.84
2022-10-24T20:51:48.312Z,62450.84
2022-10-24T20:54:15.207Z,62450.84
2022-10-24T20:56:43.425Z,62450.84
2022-10-24T20:59:13.337Z,62450.84
2022-10-24T21:01:40.838Z,62450.84
2022-10-24T21:04:07.788Z,62450.84
2022-10-24T21:06:34.852Z,62450.84
2022-10-24T21:09:05.267Z,62450.84
2022-10-24T21:11:34.785Z,62450.84
2022-10-24T21:14:06.439Z,62450.84
2022-10-24T21:16:34.432Z,62450.84
2022-10-24T21:19:01.893Z,62450.84
2022-10-24T21:21:29.727Z,62450.84
2022-10-24T21:24:02.656Z,62450.84
2022-10-24T21:26:32.841Z,62450.84
2022-10-24T21:29:09.000Z,62450.84
2022-10-24T21:31:43.202Z,62450.84
2022-10-24T21:34:10.201Z,62450.84
2022-10-24T21:36:37.035Z,62450.84
2022-10-24T21:39:04.190Z,62450.84
2022-10-24T21:41:30.980Z,62450.84
2022-10-24T21:43:58.660Z,62450.84
2022-10-24T21:46:27.335Z,62450.84
2022-10-24T21:48:57.095Z,62450.84
2022-10-24T21:51:27.270Z,62450.84
2022-10-24T21:53:56.644Z,62450.84
2022-10-24T21:56:28.726Z,62450.84
2022-10-24T21:58:58.677Z,62450.84
2022-10-24T22:01:29.034Z,62450.84
2022-10-24T22:03:59.699Z,62450.84
2022-10-24T22:06:31.146Z,62450.84
2022-10-24T22:08:58.975Z,62450.84
2022-10-24T22:11:29.421Z,62450.84
2022-10-24T22:13:58.297Z,62450.84
2022-10-24T22:16:30.545Z,62450.84
2022-10-24T22:19:02.345Z,62450.84
2022-10-24T22:21:32.172Z,62450.84
2022-10-24T22:24:02.182Z,62450.84
2022-10-24T22:26:29.611Z,62450.84
2022-10-24T22:28:57.360Z,62450.84
2022-10-24T22:31:26.981Z,62450.84
2022-10-24T22:33:56.615Z,62450.84
2022-10-24T22:36:42.394Z,62450.84
2022-10-24T22:39:18.983Z,62450.84
2022-10-24T22:41:47.645Z,62450.84
2022-10-24T22:44:17.951Z,62450.84
2022-10-24T22:47:21.342Z,62450.84
2022-10-24T22:50:07.159Z,62450.84
2022-10-24T22:52:36.225Z,62450.84
2022-10-24T22:55:04.767Z,62450.84
2022-10-24T23:00:07.804Z,62450.84
2022-10-24T23:02:44.522Z,62450.84
2022-10-24T23:05:26.399Z,62450.84
2022-10-24T23:08:03.586Z,62450.84
2022-10-24T23:10:30.840Z,62450.84
2022-10-24T23:12:58.750Z,62450.84
2022-10-24T23:15:26.629Z,62450.84
2022-10-24T23:17:54.332Z,62450.84
2022-10-24T23:20:36.286Z,62450.84
2022-10-24T23:23:17.135Z,62450.84
2022-10-24T23:26:03.588Z,62450.84
2022-10-24T23:28:46.240Z,62450.84
2022-10-24T23:31:13.928Z,62450.84
2022-10-24T23:33:41.768Z,62450.84
2022-10-24T23:36:19.653Z,62450.84
2022-10-24T23:38:49.189Z,62450.84
2022-10-24T23:41:16.938Z,62450.84
2022-10-24T23:43:44.578Z,62450.84
2022-10-24T23:46:24.781Z,62450.84
2022-10-24T23:49:17.554Z,62450.84
2022-10-24T23:52:01.060Z,62450.84
2022-10-24T23:54:33.169Z,62450.84
2022-10-24T23:57:01.543Z,62450.84
2022-10-24T23:59:28.877Z,62450.84
